sensor_id;sensor_type;location;lat;lon;timestamp;pressure;altitude;pressure_sealevel;temperature;humidity
36304;BME280;22335;49.800;8.596;2024-01-07T00:05:22;100106.41;;;9.86;62.15
36304;BME280;22335;49.800;8.596;2024-01-07T00:12:06;100108.72;;;9.74;62.37
36304;BME280;22335;49.800;8.596;2024-01-07T00:18:51;100108.81;;;9.63;62.46
36304;BME280;22335;49.800;8.596;2024-01-07T00:25:34;100117.31;;;9.57;62.65
36304;BME280;22335;49.800;8.596;2024-01-07T00:32:18;100122.50;;;9.58;62.70
36304;BME280;22335;49.800;8.596;2024-01-07T00:39:03;100121.47;;;9.49;62.80
36304;BME280;22335;49.800;8.596;2024-01-07T00:45:46;100119.06;;;9.42;62.78
36304;BME280;22335;49.800;8.596;2024-01-07T00:52:30;100122.66;;;9.38;62.90
36304;BME280;22335;49.800;8.596;2024-01-07T00:59:15;100127.84;;;9.39;62.45
36304;BME280;22335;49.800;8.596;2024-01-07T01:05:58;100138.13;;;9.47;62.73
36304;BME280;22335;49.800;8.596;2024-01-07T01:12:44;100133.44;;;9.53;62.73
36304;BME280;22335;49.800;8.596;2024-01-07T01:19:28;100141.63;;;9.53;62.74
36304;BME280;22335;49.800;8.596;2024-01-07T01:26:12;100150.94;;;9.52;62.44
36304;BME280;22335;49.800;8.596;2024-01-07T01:32:56;100160.09;;;9.32;62.49
36304;BME280;22335;49.800;8.596;2024-01-07T01:39:42;100156.63;;;9.21;63.09
36304;BME280;22335;49.800;8.596;2024-01-07T01:46:26;100161.53;;;9.19;62.80
36304;BME280;22335;49.800;8.596;2024-01-07T01:53:12;100168.41;;;9.12;62.66
36304;BME280;22335;49.800;8.596;2024-01-07T01:59:57;100177.13;;;9.14;62.94
36304;BME280;22335;49.800;8.596;2024-01-07T02:06:46;100171.59;;;9.24;62.72
36304;BME280;22335;49.800;8.596;2024-01-07T02:13:29;100168.91;;;9.19;62.60
36304;BME280;22335;49.800;8.596;2024-01-07T02:20:15;100127.09;;;8.84;62.80
36304;BME280;22335;49.800;8.596;2024-01-07T02:27:00;100170.38;;;9.01;62.40
36304;BME280;22335;49.800;8.596;2024-01-07T02:33:45;100172.06;;;8.92;62.67
36304;BME280;22335;49.800;8.596;2024-01-07T02:40:29;100169.06;;;8.88;62.48
36304;BME280;22335;49.800;8.596;2024-01-07T02:47:14;100175.66;;;8.82;62.76
36304;BME280;22335;49.800;8.596;2024-01-07T02:53:57;100171.09;;;8.67;62.51
36304;BME280;22335;49.800;8.596;2024-01-07T03:00:41;100182.78;;;8.73;62.80
36304;BME280;22335;49.800;8.596;2024-01-07T03:07:25;100187.16;;;8.69;62.47
36304;BME280;22335;49.800;8.596;2024-01-07T03:14:09;100123.50;;;8.29;62.78
36304;BME280;22335;49.800;8.596;2024-01-07T03:20:53;100176.00;;;8.60;63.16
36304;BME280;22335;49.800;8.596;2024-01-07T03:27:38;100188.81;;;8.65;63.01
36304;BME280;22335;49.800;8.596;2024-01-07T03:34:22;100196.97;;;8.70;62.77
36304;BME280;22335;49.800;8.596;2024-01-07T03:41:05;100193.16;;;8.71;62.48
36304;BME280;22335;49.800;8.596;2024-01-07T04:05:21;100210.13;;;8.42;63.34
36304;BME280;22335;49.800;8.596;2024-01-07T04:12:06;100212.31;;;8.35;62.96
36304;BME280;22335;49.800;8.596;2024-01-07T04:18:49;100218.31;;;8.32;63.28
36304;BME280;22335;49.800;8.596;2024-01-07T04:25:34;100217.78;;;8.25;63.41
36304;BME280;22335;49.800;8.596;2024-01-07T04:32:18;100238.22;;;8.22;64.16
36304;BME280;22335;49.800;8.596;2024-01-07T04:39:01;100249.94;;;8.28;63.46
36304;BME280;22335;49.800;8.596;2024-01-07T04:45:46;100252.66;;;8.23;64.24
36304;BME280;22335;49.800;8.596;2024-01-07T04:52:30;100260.03;;;8.27;64.14
36304;BME280;22335;49.800;8.596;2024-01-07T04:59:13;100261.94;;;8.27;64.39
36304;BME280;22335;49.800;8.596;2024-01-07T05:05:58;100266.53;;;8.31;64.69
36304;BME280;22335;49.800;8.596;2024-01-07T05:12:43;100263.00;;;8.41;64.07
36304;BME280;22335;49.800;8.596;2024-01-07T05:19:26;100216.44;;;8.07;63.83
36304;BME280;22335;49.800;8.596;2024-01-07T05:26:11;100281.28;;;8.41;64.28
36304;BME280;22335;49.800;8.596;2024-01-07T05:32:55;100279.38;;;8.36;63.88
36304;BME280;22335;49.800;8.596;2024-01-07T05:39:38;100288.09;;;8.33;64.60
36304;BME280;22335;49.800;8.596;2024-01-07T05:46:23;100292.16;;;8.30;64.48
36304;BME280;22335;49.800;8.596;2024-01-07T05:53:07;100299.25;;;8.21;64.37
36304;BME280;22335;49.800;8.596;2024-01-07T05:59:50;100260.81;;;7.92;64.40
36304;BME280;22335;49.800;8.596;2024-01-07T06:06:36;100318.59;;;8.15;64.68
36304;BME280;22335;49.800;8.596;2024-01-07T06:13:19;100310.13;;;8.11;64.60
36304;BME280;22335;49.800;8.596;2024-01-07T06:20:04;100316.94;;;8.03;65.44
36304;BME280;22335;49.800;8.596;2024-01-07T06:26:50;100325.38;;;8.02;64.36
36304;BME280;22335;49.800;8.596;2024-01-07T06:33:34;100330.28;;;8.00;64.88
36304;BME280;22335;49.800;8.596;2024-01-07T06:40:17;100328.91;;;7.92;64.99
36304;BME280;22335;49.800;8.596;2024-01-07T06:47:03;100342.53;;;7.87;65.22
36304;BME280;22335;49.800;8.596;2024-01-07T06:53:46;100347.41;;;7.75;65.27
36304;BME280;22335;49.800;8.596;2024-01-07T07:00:31;100362.34;;;7.67;65.18
36304;BME280;22335;49.800;8.596;2024-01-07T07:07:16;100339.66;;;7.36;65.21
36304;BME280;22335;49.800;8.596;2024-01-07T07:14:00;100375.06;;;7.46;65.49
36304;BME280;22335;49.800;8.596;2024-01-07T07:20:43;100395.16;;;7.40;64.80
36304;BME280;22335;49.800;8.596;2024-01-07T07:27:28;100406.28;;;7.33;65.15
36304;BME280;22335;49.800;8.596;2024-01-07T07:34:12;100410.91;;;7.33;64.95
36304;BME280;22335;49.800;8.596;2024-01-07T07:40:55;100429.44;;;7.31;64.75
36304;BME280;22335;49.800;8.596;2024-01-07T07:47:40;100443.56;;;7.28;64.46
36304;BME280;22335;49.800;8.596;2024-01-07T07:54:26;100456.53;;;7.15;64.50
36304;BME280;22335;49.800;8.596;2024-01-07T08:01:09;100459.78;;;7.12;63.85
36304;BME280;22335;49.800;8.596;2024-01-07T08:07:54;100461.94;;;7.10;64.10
36304;BME280;22335;49.800;8.596;2024-01-07T08:14:37;100479.25;;;6.99;64.10
36304;BME280;22335;49.800;8.596;2024-01-07T08:21:22;100500.41;;;6.92;63.63
36304;BME280;22335;49.800;8.596;2024-01-07T08:28:07;100512.03;;;6.87;63.60
36304;BME280;22335;49.800;8.596;2024-01-07T08:34:51;100512.78;;;6.78;62.85
36304;BME280;22335;49.800;8.596;2024-01-07T08:41:35;100527.97;;;6.74;63.73
36304;BME280;22335;49.800;8.596;2024-01-07T08:48:19;100530.31;;;6.65;63.30
36304;BME280;22335;49.800;8.596;2024-01-07T08:55:03;100524.44;;;6.46;62.94
36304;BME280;22335;49.800;8.596;2024-01-07T09:01:51;100551.91;;;6.50;63.38
36304;BME280;22335;49.800;8.596;2024-01-07T09:08:36;100556.78;;;6.47;63.12
36304;BME280;22335;49.800;8.596;2024-01-07T09:15:19;100559.50;;;6.47;62.38
36304;BME280;22335;49.800;8.596;2024-01-07T09:22:03;100577.16;;;6.50;61.87
36304;BME280;22335;49.800;8.596;2024-01-07T09:28:48;100573.22;;;6.36;61.92
36304;BME280;22335;49.800;8.596;2024-01-07T09:35:33;100607.63;;;6.52;62.08
36304;BME280;22335;49.800;8.596;2024-01-07T09:42:19;100601.97;;;6.54;61.47
36304;BME280;22335;49.800;8.596;2024-01-07T09:49:04;100574.94;;;6.20;61.66
36304;BME280;22335;49.800;8.596;2024-01-07T09:55:55;100614.47;;;6.33;61.10
36304;BME280;22335;49.800;8.596;2024-01-07T10:02:45;100620.47;;;6.35;61.46
36304;BME280;22335;49.800;8.596;2024-01-07T10:09:33;100626.97;;;6.34;61.25
36304;BME280;22335;49.800;8.596;2024-01-07T10:16:17;100629.00;;;6.43;60.29
36304;BME280;22335;49.800;8.596;2024-01-07T10:23:01;100634.00;;;6.52;60.30
36304;BME280;22335;49.800;8.596;2024-01-07T10:29:48;100627.44;;;6.47;60.38
36304;BME280;22335;49.800;8.596;2024-01-07T10:36:32;100636.13;;;6.50;60.41
36304;BME280;22335;49.800;8.596;2024-01-07T10:43:15;100645.50;;;6.37;59.76
36304;BME280;22335;49.800;8.596;2024-01-07T10:50:01;100621.47;;;6.29;59.54
36304;BME280;22335;49.800;8.596;2024-01-07T10:56:48;100634.13;;;6.40;59.32
36304;BME280;22335;49.800;8.596;2024-01-07T11:03:38;100640.63;;;6.39;59.56
36304;BME280;22335;49.800;8.596;2024-01-07T11:10:34;100651.44;;;6.34;59.52
36304;BME280;22335;49.800;8.596;2024-01-07T11:17:40;100654.84;;;6.24;59.18
36304;BME280;22335;49.800;8.596;2024-01-07T11:24:39;100649.66;;;6.22;59.34
36304;BME280;22335;49.800;8.596;2024-01-07T11:31:46;100651.22;;;6.18;59.19
36304;BME280;22335;49.800;8.596;2024-01-07T11:38:30;100650.22;;;6.24;59.26
36304;BME280;22335;49.800;8.596;2024-01-07T11:45:14;100661.19;;;6.13;58.74
36304;BME280;22335;49.800;8.596;2024-01-07T11:52:00;100651.00;;;6.03;58.50
36304;BME280;22335;49.800;8.596;2024-01-07T11:58:44;100661.69;;;6.10;58.36
36304;BME280;22335;49.800;8.596;2024-01-07T12:05:27;100666.69;;;6.18;58.40
36304;BME280;22335;49.800;8.596;2024-01-07T12:12:13;100670.72;;;6.15;58.08
36304;BME280;22335;49.800;8.596;2024-01-07T12:18:56;100683.09;;;6.06;58.36
36304;BME280;22335;49.800;8.596;2024-01-07T12:25:40;100692.41;;;6.10;57.65
36304;BME280;22335;49.800;8.596;2024-01-07T12:32:26;100693.13;;;6.06;57.99
36304;BME280;22335;49.800;8.596;2024-01-07T12:39:10;100689.69;;;5.93;57.86
36304;BME280;22335;49.800;8.596;2024-01-07T12:45:53;100695.00;;;5.71;57.58
36304;BME280;22335;49.800;8.596;2024-01-07T12:52:39;100701.41;;;5.65;57.19
36304;BME280;22335;49.800;8.596;2024-01-07T12:59:23;100713.16;;;5.54;57.31
36304;BME280;22335;49.800;8.596;2024-01-07T13:06:07;100718.94;;;5.58;57.39
36304;BME280;22335;49.800;8.596;2024-01-07T13:12:51;100716.22;;;5.58;56.78
36304;BME280;22335;49.800;8.596;2024-01-07T13:19:36;100734.38;;;5.57;56.81
36304;BME280;22335;49.800;8.596;2024-01-07T13:26:19;100735.28;;;5.46;56.71
36304;BME280;22335;49.800;8.596;2024-01-07T13:33:04;100741.41;;;5.41;56.93
36304;BME280;22335;49.800;8.596;2024-01-07T13:39:49;100749.00;;;5.39;56.76
36304;BME280;22335;49.800;8.596;2024-01-07T13:46:33;100745.44;;;5.39;56.62
36304;BME280;22335;49.800;8.596;2024-01-07T13:53:18;100758.41;;;5.48;56.72
36304;BME280;22335;49.800;8.596;2024-01-07T14:00:02;100772.19;;;5.47;56.87
36304;BME280;22335;49.800;8.596;2024-01-07T14:06:53;100775.63;;;5.42;56.25
36304;BME280;22335;49.800;8.596;2024-01-07T14:13:38;100793.47;;;5.26;56.41
36304;BME280;22335;49.800;8.596;2024-01-07T14:20:22;100798.16;;;5.14;56.10
36304;BME280;22335;49.800;8.596;2024-01-07T14:27:05;100808.75;;;5.16;55.98
36304;BME280;22335;49.800;8.596;2024-01-07T14:33:50;100802.78;;;5.02;55.46
36304;BME280;22335;49.800;8.596;2024-01-07T14:40:34;100787.97;;;4.69;55.84
36304;BME280;22335;49.800;8.596;2024-01-07T14:47:17;100826.38;;;4.90;55.57
36304;BME280;22335;49.800;8.596;2024-01-07T14:54:03;100828.59;;;4.93;55.21
36304;BME280;22335;49.800;8.596;2024-01-07T15:00:46;100850.28;;;4.81;54.63
36304;BME280;22335;49.800;8.596;2024-01-07T15:07:31;100856.66;;;4.63;54.53
36304;BME280;22335;49.800;8.596;2024-01-07T15:14:15;100861.09;;;4.46;53.82
36304;BME280;22335;49.800;8.596;2024-01-07T15:20:59;100878.28;;;4.39;54.11
36304;BME280;22335;49.800;8.596;2024-01-07T15:27:43;100887.69;;;4.25;53.56
36304;BME280;22335;49.800;8.596;2024-01-07T15:34:28;100895.44;;;4.10;53.73
36304;BME280;22335;49.800;8.596;2024-01-07T15:41:11;100932.81;;;4.01;54.15
36304;BME280;22335;49.800;8.596;2024-01-07T15:47:55;100933.72;;;3.95;54.25
36304;BME280;22335;49.800;8.596;2024-01-07T15:54:40;100948.31;;;3.94;53.95
36304;BME280;22335;49.800;8.596;2024-01-07T16:01:23;100955.31;;;3.83;53.91
36304;BME280;22335;49.800;8.596;2024-01-07T16:08:07;100963.88;;;3.80;53.62
36304;BME280;22335;49.800;8.596;2024-01-07T16:14:52;100976.91;;;3.72;53.13
36304;BME280;22335;49.800;8.596;2024-01-07T16:21:35;100984.59;;;3.56;53.25
36304;BME280;22335;49.800;8.596;2024-01-07T16:28:20;100969.91;;;3.27;52.62
36304;BME280;22335;49.800;8.596;2024-01-07T16:35:06;101008.69;;;3.39;52.46
36304;BME280;22335;49.800;8.596;2024-01-07T16:41:49;101019.78;;;3.31;52.38
36304;BME280;22335;49.800;8.596;2024-01-07T16:48:36;101035.16;;;3.31;52.70
36304;BME280;22335;49.800;8.596;2024-01-07T16:55:24;101045.59;;;3.27;52.60
36304;BME280;22335;49.800;8.596;2024-01-07T17:02:07;101023.16;;;3.02;52.72
36304;BME280;22335;49.800;8.596;2024-01-07T17:08:51;101054.16;;;2.99;52.18
36304;BME280;22335;49.800;8.596;2024-01-07T17:15:36;101065.28;;;2.84;52.35
36304;BME280;22335;49.800;8.596;2024-01-07T17:22:20;101071.97;;;2.75;52.32
36304;BME280;22335;49.800;8.596;2024-01-07T17:29:04;101086.63;;;2.61;52.72
36304;BME280;22335;49.800;8.596;2024-01-07T17:35:49;101054.41;;;2.27;52.35
36304;BME280;22335;49.800;8.596;2024-01-07T17:42:32;101102.66;;;2.56;51.74
36304;BME280;22335;49.800;8.596;2024-01-07T17:49:16;101098.06;;;2.56;51.48
36304;BME280;22335;49.800;8.596;2024-01-07T17:56:01;101113.53;;;2.42;52.05
36304;BME280;22335;49.800;8.596;2024-01-07T18:02:44;101120.59;;;2.37;51.85
36304;BME280;22335;49.800;8.596;2024-01-07T18:09:28;101124.94;;;2.38;51.83
36304;BME280;22335;49.800;8.596;2024-01-07T18:16:12;101125.16;;;2.36;51.62
36304;BME280;22335;49.800;8.596;2024-01-07T18:22:56;101128.03;;;2.41;51.70
36304;BME280;22335;49.800;8.596;2024-01-07T18:29:39;101140.94;;;2.39;52.01
36304;BME280;22335;49.800;8.596;2024-01-07T18:36:24;101140.34;;;2.30;51.91
36304;BME280;22335;49.800;8.596;2024-01-07T18:43:08;101151.34;;;2.36;51.09
36304;BME280;22335;49.800;8.596;2024-01-07T18:49:51;101155.25;;;2.40;51.33
36304;BME280;22335;49.800;8.596;2024-01-07T18:56:36;101170.38;;;2.54;51.13
36304;BME280;22335;49.800;8.596;2024-01-07T19:03:20;101159.59;;;2.47;51.93
36304;BME280;22335;49.800;8.596;2024-01-07T19:10:05;101148.97;;;2.52;51.51
36304;BME280;22335;49.800;8.596;2024-01-07T19:16:51;101160.44;;;2.41;51.03
36304;BME280;22335;49.800;8.596;2024-01-07T19:23:35;101160.47;;;2.35;51.28
36304;BME280;22335;49.800;8.596;2024-01-07T19:30:21;101130.25;;;2.06;50.55
36304;BME280;22335;49.800;8.596;2024-01-07T19:37:14;101170.22;;;2.29;50.83
36304;BME280;22335;49.800;8.596;2024-01-07T19:43:57;101172.72;;;2.37;50.64
36304;BME280;22335;49.800;8.596;2024-01-07T19:50:42;101184.97;;;2.33;50.52
36304;BME280;22335;49.800;8.596;2024-01-07T19:57:28;101146.41;;;2.19;50.73
36304;BME280;22335;49.800;8.596;2024-01-07T20:04:12;101179.78;;;2.31;51.14
36304;BME280;22335;49.800;8.596;2024-01-07T20:10:55;101182.09;;;2.28;51.02
36304;BME280;22335;49.800;8.596;2024-01-07T20:17:40;101181.69;;;2.24;50.96
36304;BME280;22335;49.800;8.596;2024-01-07T20:24:24;101178.97;;;2.24;50.87
36304;BME280;22335;49.800;8.596;2024-01-07T20:31:07;101188.13;;;2.23;50.94
36304;BME280;22335;49.800;8.596;2024-01-07T20:37:52;101184.16;;;2.33;50.74
36304;BME280;22335;49.800;8.596;2024-01-07T20:44:36;101197.84;;;2.31;50.43
36304;BME280;22335;49.800;8.596;2024-01-07T20:51:19;101205.72;;;2.39;50.01
36304;BME280;22335;49.800;8.596;2024-01-07T20:58:06;101211.13;;;2.39;50.09
36304;BME280;22335;49.800;8.596;2024-01-07T21:04:49;101214.44;;;2.35;50.39
36304;BME280;22335;49.800;8.596;2024-01-07T21:11:34;101213.84;;;2.39;50.30
36304;BME280;22335;49.800;8.596;2024-01-07T21:18:18;101225.66;;;2.45;50.88
36304;BME280;22335;49.800;8.596;2024-01-07T21:25:02;101227.28;;;2.52;50.31
36304;BME280;22335;49.800;8.596;2024-01-07T21:31:46;101238.28;;;2.58;50.67
36304;BME280;22335;49.800;8.596;2024-01-07T21:38:32;101236.16;;;2.66;50.08
36304;BME280;22335;49.800;8.596;2024-01-07T21:45:16;101229.72;;;2.74;50.84
36304;BME280;22335;49.800;8.596;2024-01-07T21:52:00;101239.69;;;2.73;50.40
36304;BME280;22335;49.800;8.596;2024-01-07T21:58:45;101247.97;;;2.78;50.13
36304;BME280;22335;49.800;8.596;2024-01-07T22:05:28;101245.69;;;2.82;50.72
36304;BME280;22335;49.800;8.596;2024-01-07T22:12:12;101239.84;;;2.85;50.46
36304;BME280;22335;49.800;8.596;2024-01-07T22:18:57;101251.03;;;2.95;50.66
36304;BME280;22335;49.800;8.596;2024-01-07T22:25:41;101249.94;;;3.03;50.45
36304;BME280;22335;49.800;8.596;2024-01-07T22:32:24;101250.94;;;3.09;51.12
36304;BME280;22335;49.800;8.596;2024-01-07T22:39:09;101217.56;;;2.90;51.17
36304;BME280;22335;49.800;8.596;2024-01-07T22:45:53;101249.03;;;3.16;50.64
36304;BME280;22335;49.800;8.596;2024-01-07T22:52:37;101250.13;;;3.08;50.57
36304;BME280;22335;49.800;8.596;2024-01-07T22:59:22;101257.41;;;3.08;50.85
36304;BME280;22335;49.800;8.596;2024-01-07T23:06:06;101256.78;;;3.06;50.80
36304;BME280;22335;49.800;8.596;2024-01-07T23:12:53;101259.03;;;3.15;51.09
36304;BME280;22335;49.800;8.596;2024-01-07T23:19:37;101257.16;;;3.16;50.63
36304;BME280;22335;49.800;8.596;2024-01-07T23:26:21;101261.97;;;3.14;50.39
36304;BME280;22335;49.800;8.596;2024-01-07T23:33:05;101266.50;;;3.20;51.04
36304;BME280;22335;49.800;8.596;2024-01-07T23:39:49;101249.03;;;3.22;50.74
36304;BME280;22335;49.800;8.596;2024-01-07T23:46:33;101262.09;;;3.26;50.83
36304;BME280;22335;49.800;8.596;2024-01-07T23:53:16;101252.97;;;3.20;50.93
